Time;durP1;ratioP1;P1;durP2;ratioP2;P2;SDS_P1;SDS_P2;PMS_P1;PMS_P2;Temp;Humidity;BMP_temperature;BMP_pressure;BME280_temperature;BME280_humidity;BME280_pressure;Samples;Min_cycle;Max_cycle;Signal;HPM_P1;HPM_P2
2024/04/08 00:00:23;;;;;;;0.90;0.90;;;;;;;14.27;100.00;100120.69;5104462;28;20204;-63
2024/04/08 00:02:50;;;;;;;0.87;0.87;;;;;;;14.23;100.00;100108.78;5096319;28;20265;-64
2024/04/08 00:05:17;;;;;;;1.17;1.17;;;;;;;14.21;100.00;100110.59;5111221;28;20220;-63
2024/04/08 00:07:43;;;;;;;1.10;1.10;;;;;;;14.24;100.00;100107.91;5108373;28;20206;-63
2024/04/08 00:10:11;;;;;;;0.83;0.83;;;;;;;14.22;100.00;100106.28;5094926;28;20211;-64
2024/04/08 00:12:39;;;;;;;1.23;1.23;;;;;;;14.18;100.00;100106.34;5097519;28;20203;-64
2024/04/08 00:15:07;;;;;;;0.87;0.87;;;;;;;14.15;100.00;100105.66;5092932;28;20198;-63
2024/04/08 00:17:34;;;;;;;1.43;1.40;;;;;;;14.14;100.00;100109.09;5110300;28;20274;-64
2024/04/08 00:20:00;;;;;;;0.77;0.77;;;;;;;14.13;100.00;100094.53;5093830;28;20199;-63
2024/04/08 00:22:26;;;;;;;1.10;1.10;;;;;;;14.13;100.00;100097.94;5101350;28;20256;-64
2024/04/08 00:24:52;;;;;;;0.97;0.97;;;;;;;14.12;100.00;100100.56;5105547;28;20798;-63
2024/04/08 00:27:19;;;;;;;1.20;1.20;;;;;;;14.11;100.00;100106.63;5106463;28;20276;-64
2024/04/08 00:29:46;;;;;;;1.13;1.13;;;;;;;14.10;100.00;100115.25;5095123;28;20199;-64
2024/04/08 00:32:14;;;;;;;1.00;1.00;;;;;;;13.96;100.00;100095.06;5110068;28;20213;-64
2024/04/08 00:34:40;;;;;;;1.07;1.07;;;;;;;14.01;100.00;100118.13;5097868;28;20252;-64
2024/04/08 00:37:07;;;;;;;1.70;1.60;;;;;;;13.94;100.00;100121.81;5093714;28;20210;-64
2024/04/08 00:39:33;;;;;;;1.27;1.27;;;;;;;13.90;100.00;100108.16;5097721;28;20716;-64
2024/04/08 00:42:00;;;;;;;1.00;1.00;;;;;;;13.96;100.00;100117.44;5096961;28;20196;-64
2024/04/08 00:44:25;;;;;;;0.80;0.80;;;;;;;13.95;100.00;100114.03;5101673;28;20195;-64
2024/04/08 00:46:54;;;;;;;1.17;1.17;;;;;;;13.92;100.00;100121.03;5103264;28;20731;-64
2024/04/08 00:49:21;;;;;;;1.17;1.17;;;;;;;13.85;100.00;100109.22;5110321;28;20256;-63
2024/04/08 00:51:48;;;;;;;3.87;1.47;;;;;;;13.80;100.00;100105.94;5099716;28;20756;-64
2024/04/08 00:54:13;;;;;;;1.70;1.60;;;;;;;13.77;100.00;100106.03;5097988;28;20259;-64
2024/04/08 00:56:43;;;;;;;1.23;1.23;;;;;;;13.77;100.00;100111.19;5097648;28;20203;-64
2024/04/08 00:59:11;;;;;;;0.90;0.90;;;;;;;13.72;100.00;100113.91;5113988;28;20694;-64
2024/04/08 01:01:38;;;;;;;1.03;1.03;;;;;;;13.61;100.00;100118.56;5107866;28;20202;-63
2024/04/08 01:04:06;;;;;;;0.80;0.80;;;;;;;13.56;100.00;100118.72;5108345;28;20206;-63
2024/04/08 01:06:33;;;;;;;1.10;1.10;;;;;;;13.53;100.00;100115.38;5114550;28;20202;-64
2024/04/08 01:09:00;;;;;;;1.20;1.20;;;;;;;13.49;100.00;100116.38;5113452;28;20267;-64
2024/04/08 01:11:27;;;;;;;1.00;1.00;;;;;;;13.33;100.00;100107.41;5097732;28;20272;-64
2024/04/08 01:13:54;;;;;;;1.10;1.10;;;;;;;13.32;100.00;100106.56;5108970;28;20259;-64
2024/04/08 01:16:20;;;;;;;1.00;1.00;;;;;;;13.21;100.00;100111.22;5103077;28;20776;-64
2024/04/08 01:18:46;;;;;;;1.50;1.50;;;;;;;13.15;100.00;100106.22;5113462;28;20263;-63
2024/04/08 01:21:14;;;;;;;1.70;1.60;;;;;;;13.06;100.00;100103.88;5102258;28;20666;-64
2024/04/08 01:23:42;;;;;;;1.13;1.13;;;;;;;13.00;100.00;100096.34;5101735;28;20645;-64
2024/04/08 01:26:09;;;;;;;1.33;1.20;;;;;;;13.01;100.00;100103.19;5103077;28;20251;-64
2024/04/08 01:28:35;;;;;;;1.00;1.00;;;;;;;13.00;100.00;100096.34;5111933;28;20199;-63
2024/04/08 01:31:03;;;;;;;1.00;1.00;;;;;;;12.98;100.00;100086.09;5094330;28;20215;-63
2024/04/08 01:33:29;;;;;;;1.10;1.10;;;;;;;12.98;100.00;100090.41;5097619;28;20236;-63
2024/04/08 01:35:59;;;;;;;1.00;1.00;;;;;;;12.96;100.00;100087.00;5099990;28;20202;-63
2024/04/08 01:38:25;;;;;;;1.23;1.13;;;;;;;12.92;100.00;100095.72;5105716;28;20195;-63
2024/04/08 01:40:53;;;;;;;2.20;1.20;;;;;;;12.91;100.00;100096.59;5097109;28;20195;-63
2024/04/08 01:43:19;;;;;;;1.20;1.10;;;;;;;12.87;100.00;100089.84;5104306;28;20204;-63
2024/04/08 01:45:46;;;;;;;1.10;1.10;;;;;;;12.87;100.00;100093.28;5096900;28;20262;-63
2024/04/08 01:48:11;;;;;;;1.30;1.20;;;;;;;12.81;100.00;100088.31;5096967;28;20256;-63
2024/04/08 01:50:38;;;;;;;1.00;1.00;;;;;;;12.81;100.00;100083.16;5107676;28;20211;-63
2024/04/08 01:53:04;;;;;;;1.10;1.10;;;;;;;12.81;100.00;100082.31;5100263;28;20198;-63
2024/04/08 01:55:31;;;;;;;1.10;1.10;;;;;;;12.78;100.00;100087.53;5102977;28;20728;-63
2024/04/08 01:57:58;;;;;;;1.33;1.33;;;;;;;12.74;100.00;100096.22;5100286;28;20217;-63
2024/04/08 02:00:25;;;;;;;1.20;1.20;;;;;;;12.73;100.00;100097.94;5103035;28;20203;-63
2024/04/08 02:02:50;;;;;;;1.40;1.40;;;;;;;12.71;100.00;100086.03;5110992;28;20730;-64
2024/04/08 02:05:17;;;;;;;1.83;1.73;;;;;;;12.63;100.00;100094.78;5105082;28;20282;-63
2024/04/08 02:07:45;;;;;;;1.00;1.00;;;;;;;12.62;100.00;100098.28;5094651;28;20662;-63
2024/04/08 02:10:11;;;;;;;1.40;1.40;;;;;;;12.60;100.00;100089.72;5103859;28;20209;-63
2024/04/08 02:12:37;;;;;;;1.07;1.07;;;;;;;12.50;100.00;100106.28;5099565;28;20202;-64
2024/04/08 02:15:06;;;;;;;1.50;1.43;;;;;;;12.38;100.00;100098.06;5110627;28;20203;-64
2024/04/08 02:17:32;;;;;;;1.20;1.20;;;;;;;12.32;100.00;100111.09;5103174;28;20203;-64
2024/04/08 02:19:58;;;;;;;1.23;1.23;;;;;;;12.25;100.00;100105.25;5100965;28;20199;-63
2024/04/08 02:22:24;;;;;;;1.10;1.10;;;;;;;12.18;100.00;100085.72;5095455;28;20196;-63
2024/04/08 02:24:51;;;;;;;1.13;1.13;;;;;;;12.24;100.00;100101.03;5105343;28;20267;-63
2024/04/08 02:27:18;;;;;;;1.10;1.10;;;;;;;12.24;100.00;100101.03;5102966;28;20195;-63
2024/04/08 02:29:43;;;;;;;1.30;1.30;;;;;;;12.20;100.00;100101.97;5112537;28;20203;-63
2024/04/08 02:32:11;;;;;;;2.10;1.00;;;;;;;12.10;100.00;100103.94;5105542;28;20219;-63
2024/04/08 02:34:37;;;;;;;0.80;0.80;;;;;;;11.87;100.00;100090.81;5096275;28;20196;-64
2024/04/08 02:37:04;;;;;;;0.90;0.90;;;;;;;11.95;100.00;100103.47;5095747;28;20254;-63
2024/04/08 02:39:30;;;;;;;1.13;1.13;;;;;;;11.58;100.00;100052.09;5105126;28;20256;-63
2024/04/08 02:41:57;;;;;;;1.10;1.10;;;;;;;11.84;100.00;100100.31;5109768;28;21202;-63
2024/04/08 02:44:22;;;;;;;0.80;0.80;;;;;;;11.79;100.00;100107.28;5105256;28;20202;-63
2024/04/08 02:46:49;;;;;;;0.70;0.70;;;;;;;11.73;100.00;100110.00;5109527;28;20207;-63
2024/04/08 02:49:16;;;;;;;0.87;0.87;;;;;;;11.70;100.00;100105.75;5106006;27;20198;-63
2024/04/08 02:51:43;;;;;;;1.17;1.17;;;;;;;11.57;100.00;100107.75;5100861;28;20225;-63
2024/04/08 02:54:08;;;;;;;1.00;1.00;;;;;;;11.53;100.00;100103.56;5110969;28;20211;-63
2024/04/08 02:56:35;;;;;;;0.97;0.97;;;;;;;11.56;100.00;100102.66;5096713;28;20195;-63
2024/04/08 02:59:01;;;;;;;1.47;1.37;;;;;;;11.57;100.00;100112.88;5098806;28;20286;-63
2024/04/08 03:01:28;;;;;;;0.97;0.97;;;;;;;11.53;100.00;100108.69;5102019;28;20634;-63
2024/04/08 03:03:54;;;;;;;1.00;1.00;;;;;;;11.54;100.00;100114.66;5103081;27;20622;-63
2024/04/08 03:06:22;;;;;;;0.80;0.80;;;;;;;11.46;100.00;100111.44;5104429;28;20199;-63
2024/04/08 03:08:47;;;;;;;1.77;0.93;;;;;;;11.41;100.00;100111.53;5112285;28;20202;-63
2024/04/08 03:11:14;;;;;;;1.17;1.17;;;;;;;11.34;100.00;100122.81;5098755;28;20745;-63
2024/04/08 03:13:40;;;;;;;1.07;1.07;;;;;;;11.19;100.00;100100.06;5105493;28;20745;-63
2024/04/08 03:16:07;;;;;;;1.20;1.20;;;;;;;11.26;100.00;100119.59;5097156;28;20194;-63
2024/04/08 03:18:33;;;;;;;1.37;1.37;;;;;;;11.17;100.00;100119.78;5104940;28;21215;-63
2024/04/08 03:21:01;;;;;;;1.13;1.13;;;;;;;11.07;100.00;100128.53;5101988;28;20198;-63
2024/04/08 03:23:29;;;;;;;1.83;1.30;;;;;;;10.98;100.00;100127.03;5110803;28;20202;-63
2024/04/08 03:25:59;;;;;;;0.93;0.93;;;;;;;10.99;100.00;100125.28;5094450;28;20203;-64
2024/04/08 03:28:25;;;;;;;1.20;1.20;;;;;;;11.01;100.00;100126.09;5105595;28;20241;-63
2024/04/08 03:30:52;;;;;;;1.37;1.37;;;;;;;11.05;100.00;100127.72;5093771;28;20682;-63
2024/04/08 03:33:19;;;;;;;1.20;1.20;;;;;;;11.08;100.00;100125.94;5100936;28;20288;-63
2024/04/08 03:35:47;;;;;;;1.17;1.10;;;;;;;10.99;100.00;100127.84;5111933;28;20206;-63
2024/04/08 03:38:13;;;;;;;1.27;1.27;;;;;;;11.04;100.00;100126.91;5106688;28;20255;-63
2024/04/08 03:40:42;;;;;;;0.97;0.97;;;;;;;11.00;100.00;100115.00;5104690;28;20191;-63
2024/04/08 03:43:09;;;;;;;1.33;1.33;;;;;;;11.08;100.00;100137.94;5101354;28;20203;-63
2024/04/08 03:45:37;;;;;;;0.83;0.83;;;;;;;11.11;100.00;100134.47;5101384;28;20667;-63
2024/04/08 03:48:03;;;;;;;0.80;0.80;;;;;;;11.07;100.00;100131.13;5098438;28;20199;-63
2024/04/08 03:50:30;;;;;;;1.00;1.00;;;;;;;11.01;100.00;100134.66;5107009;28;20194;-62
2024/04/08 03:52:56;;;;;;;0.80;0.80;;;;;;;11.03;100.00;100139.75;5098893;28;20268;-62
2024/04/08 03:55:24;;;;;;;0.90;0.90;;;;;;;11.04;100.00;100146.56;5091900;28;20204;-63
2024/04/08 03:57:51;;;;;;;1.00;1.00;;;;;;;11.07;100.00;100149.06;5099726;28;20640;-63
2024/04/08 04:00:18;;;;;;;1.87;1.77;;;;;;;11.11;100.00;100148.13;5103393;28;20200;-63
2024/04/08 04:02:44;;;;;;;0.93;0.93;;;;;;;11.03;100.00;100129.47;5102467;28;20269;-63
2024/04/08 04:05:10;;;;;;;1.90;1.30;;;;;;;11.13;100.00;100151.50;5101776;28;20203;-63
2024/04/08 04:07:37;;;;;;;1.00;1.00;;;;;;;11.12;100.00;100157.50;5110842;28;20264;-63
2024/04/08 04:10:06;;;;;;;1.23;1.23;;;;;;;11.15;100.00;100159.19;5111139;28;20199;-63
2024/04/08 04:12:33;;;;;;;4.97;1.80;;;;;;;11.17;100.00;100158.28;5100374;28;20364;-63
2024/04/08 04:15:01;;;;;;;2.40;1.20;;;;;;;11.20;100.00;100168.47;5102927;28;20198;-63
2024/04/08 04:17:27;;;;;;;1.13;1.13;;;;;;;11.18;100.00;100159.94;5105628;28;20198;-63
2024/04/08 04:19:54;;;;;;;1.00;1.00;;;;;;;11.21;100.00;100164.19;5098541;28;20256;-63
2024/04/08 04:22:19;;;;;;;1.90;1.00;;;;;;;11.22;100.00;100161.59;5093644;28;20211;-63
2024/04/08 04:24:46;;;;;;;1.60;1.60;;;;;;;11.15;100.00;100152.31;5101045;28;20194;-62
2024/04/08 04:27:12;;;;;;;3.10;1.27;;;;;;;11.21;100.00;100161.63;5105923;28;20195;-63
2024/04/08 04:29:39;;;;;;;1.50;1.50;;;;;;;11.21;100.00;100167.59;5102954;28;20736;-63
2024/04/08 04:32:07;;;;;;;1.10;1.10;;;;;;;11.25;100.00;100168.38;5104076;28;20787;-63
2024/04/08 04:34:33;;;;;;;1.10;1.10;;;;;;;11.25;100.00;100170.94;5091654;28;20195;-63
2024/04/08 04:36:59;;;;;;;0.73;0.73;;;;;;;11.16;100.00;100151.44;5092541;28;20211;-63
2024/04/08 04:39:26;;;;;;;1.33;1.33;;;;;;;11.37;100.00;100171.53;5097985;28;20204;-63
2024/04/08 04:41:53;;;;;;;1.63;1.60;;;;;;;11.39;100.00;100164.66;5104947;28;20209;-63
2024/04/08 04:44:20;;;;;;;1.43;1.43;;;;;;;11.51;100.00;100169.50;5091550;28;20264;-63
2024/04/08 04:46:47;;;;;;;11.07;1.17;;;;;;;11.72;100.00;100167.38;5107233;28;20194;-63
2024/04/08 04:49:15;;;;;;;1.20;1.07;;;;;;;11.83;100.00;100157.69;5104452;28;20583;-63
2024/04/08 04:51:42;;;;;;;1.43;1.43;;;;;;;12.17;100.00;100179.16;5109126;28;20218;-63
2024/04/08 04:54:09;;;;;;;1.43;1.43;;;;;;;12.38;99.54;100181.19;5099085;28;20196;-63
2024/04/08 04:56:35;;;;;;;1.40;1.40;;;;;;;12.60;99.03;100177.19;5095970;28;20199;-63
2024/04/08 04:59:02;;;;;;;1.43;1.43;;;;;;;12.79;97.95;100177.56;5091247;28;20200;-63
2024/04/08 05:01:27;;;;;;;1.70;1.50;;;;;;;13.01;97.66;100172.69;5102473;28;20638;-63
2024/04/08 05:03:54;;;;;;;1.77;1.67;;;;;;;13.26;96.04;100173.69;5110371;28;20256;-63
2024/04/08 05:06:21;;;;;;;1.40;1.40;;;;;;;13.48;94.54;100179.06;5108761;28;20255;-63
2024/04/08 05:08:49;;;;;;;1.40;1.40;;;;;;;13.73;93.88;100179.19;5110906;28;20210;-63
2024/04/08 05:11:15;;;;;;;0.97;0.97;;;;;;;13.99;92.86;100181.81;5093759;28;20227;-64
2024/04/08 05:13:41;;;;;;;0.90;0.90;;;;;;;14.15;91.25;100188.16;5097806;28;20203;-64
2024/04/08 05:16:10;;;;;;;1.30;1.30;;;;;;;14.34;91.06;100189.28;5107886;28;20666;-64
2024/04/08 05:18:38;;;;;;;1.20;1.20;;;;;;;14.52;89.46;100192.97;5100591;28;20666;-64
2024/04/08 05:21:04;;;;;;;1.17;1.17;;;;;;;14.78;89.11;100192.09;5093444;28;20273;-64
2024/04/08 05:23:32;;;;;;;1.27;1.27;;;;;;;15.03;88.46;100195.47;5100970;28;20302;-63
2024/04/08 05:25:58;;;;;;;3.90;1.40;;;;;;;15.28;86.72;100196.31;5095374;28;20207;-64
2024/04/08 05:28:25;;;;;;;1.80;1.80;;;;;;;15.39;85.09;100199.31;5096152;28;20224;-64
2024/04/08 05:30:50;;;;;;;2.10;1.20;;;;;;;15.53;85.47;100202.28;5094280;28;20279;-65
2024/04/08 05:33:17;;;;;;;1.03;1.03;;;;;;;15.53;83.91;100197.09;5098219;28;20227;-66
2024/04/08 05:35:44;;;;;;;1.23;1.23;;;;;;;15.72;85.75;100192.91;5104852;28;20253;-65
2024/04/08 05:38:11;;;;;;;1.50;1.50;;;;;;;15.94;86.23;100195.50;5098215;28;20310;-64
2024/04/08 05:40:38;;;;;;;1.00;1.00;;;;;;;16.11;84.31;100200.84;5110576;28;20202;-64
2024/04/08 05:43:06;;;;;;;1.23;1.23;;;;;;;16.38;83.53;100204.06;5109759;28;20751;-64
2024/04/08 05:45:32;;;;;;;2.47;2.17;;;;;;;16.42;81.56;100205.63;5107169;28;20198;-64
2024/04/08 05:47:59;;;;;;;2.43;2.23;;;;;;;16.63;83.07;100202.19;5105658;28;20253;-64
2024/04/08 05:50:25;;;;;;;1.70;1.60;;;;;;;16.64;82.55;100203.84;5107130;28;20581;-64
2024/04/08 05:52:53;;;;;;;1.43;1.43;;;;;;;16.92;83.92;100205.28;5104604;28;20214;-64
2024/04/08 05:55:19;;;;;;;1.63;1.23;;;;;;;17.17;82.64;100203.28;5102818;28;20199;-64
2024/04/08 05:57:47;;;;;;;1.10;1.10;;;;;;;17.15;80.77;100202.53;5111361;28;20203;-64
2024/04/08 06:00:15;;;;;;;1.40;1.40;;;;;;;17.33;82.03;100206.88;5097154;28;20200;-65
2024/04/08 06:02:42;;;;;;;1.33;1.33;;;;;;;17.50;83.04;100193.16;5112363;28;20654;-65
2024/04/08 06:05:08;;;;;;;1.13;1.13;;;;;;;17.67;78.35;100214.00;5098542;28;20207;-63
2024/04/08 06:07:36;;;;;;;1.40;1.40;;;;;;;17.84;78.48;100209.69;5108782;28;20195;-64
2024/04/08 06:10:02;;;;;;;1.63;1.37;;;;;;;18.01;77.10;100201.13;5111193;28;20259;-64
2024/04/08 06:12:29;;;;;;;1.10;1.10;;;;;;;18.25;78.39;100214.69;5104079;28;20223;-65
2024/04/08 06:14:56;;;;;;;1.30;1.30;;;;;;;18.34;76.75;100209.88;5105197;28;20209;-64
2024/04/08 06:17:23;;;;;;;1.40;1.40;;;;;;;18.35;77.35;100205.53;5105292;28;20201;-65
2024/04/08 06:19:49;;;;;;;1.60;1.50;;;;;;;18.60;76.85;100211.22;5109243;28;20200;-64
2024/04/08 06:22:15;;;;;;;1.30;1.30;;;;;;;18.72;76.87;100205.41;5103421;28;20202;-65
2024/04/08 06:24:41;;;;;;;1.23;1.23;;;;;;;18.81;75.56;100215.31;5099407;28;20264;-65
2024/04/08 06:27:08;;;;;;;1.70;1.60;;;;;;;18.92;74.94;100216.53;5104875;28;20662;-65
2024/04/08 06:29:34;;;;;;;1.40;1.40;;;;;;;19.09;77.29;100219.97;5100671;28;20248;-65
2024/04/08 06:32:03;;;;;;;1.60;1.60;;;;;;;19.24;77.81;100220.91;5107676;28;20216;-64
2024/04/08 06:34:29;;;;;;;1.40;1.37;;;;;;;19.38;76.91;100223.63;5100267;28;20229;-64
2024/04/08 06:36:56;;;;;;;1.47;1.47;;;;;;;19.43;77.35;100219.03;5098128;28;20198;-65
2024/04/08 06:39:21;;;;;;;1.60;1.50;;;;;;;19.67;74.59;100228.13;5100129;28;20199;-66
2024/04/08 06:41:48;;;;;;;1.50;1.40;;;;;;;19.85;73.95;100208.91;5101248;28;20330;-66
2024/04/08 06:44:15;;;;;;;1.87;1.80;;;;;;;20.23;74.01;100230.19;5099268;28;20202;-66
2024/04/08 06:46:41;;;;;;;1.20;1.20;;;;;;;20.38;72.38;100231.13;5103877;28;20733;-66
2024/04/08 06:49:09;;;;;;;1.43;1.43;;;;;;;20.36;70.66;100232.94;5101046;28;20196;-66
2024/04/08 06:51:36;;;;;;;2.40;1.63;;;;;;;20.42;73.25;100216.97;5107431;28;20210;-65
2024/04/08 06:54:02;;;;;;;1.83;1.73;;;;;;;20.73;73.32;100219.50;5108942;28;20202;-65
2024/04/08 06:56:28;;;;;;;2.73;1.40;;;;;;;20.86;70.57;100228.25;5099558;28;20574;-63
2024/04/08 06:58:54;;;;;;;1.40;1.30;;;;;;;21.05;72.80;100228.00;5099245;28;20206;-63
2024/04/08 07:01:21;;;;;;;1.63;1.63;;;;;;;21.09;70.65;100228.66;5101265;28;20202;-64
2024/04/08 07:03:47;;;;;;;1.50;1.40;;;;;;;21.37;69.19;100231.28;5101147;28;20232;-63
2024/04/08 07:06:15;;;;;;;1.40;1.40;;;;;;;21.41;69.35;100224.97;5107570;28;20207;-63
2024/04/08 07:08:41;;;;;;;1.17;1.17;;;;;;;21.50;67.54;100224.38;5109201;28;20238;-63
2024/04/08 07:11:08;;;;;;;2.97;1.53;;;;;;;21.15;70.41;100147.47;5102622;28;20237;-63
2024/04/08 07:13:34;;;;;;;1.40;1.40;;;;;;;21.78;67.10;100234.78;5100664;28;20682;-64
2024/04/08 07:16:01;;;;;;;1.57;1.57;;;;;;;22.00;68.63;100229.09;5106850;28;20226;-64
2024/04/08 07:18:26;;;;;;;1.33;1.23;;;;;;;21.95;66.71;100242.41;5104338;28;20207;-64
2024/04/08 07:20:53;;;;;;;1.97;1.87;;;;;;;21.97;65.36;100240.53;5102954;28;20256;-64
2024/04/08 07:23:20;;;;;;;1.57;1.47;;;;;;;22.04;64.60;100242.75;5096360;28;20203;-64
2024/04/08 07:25:49;;;;;;;1.17;1.17;;;;;;;22.22;63.48;100245.03;5100157;28;20206;-64
2024/04/08 07:28:15;;;;;;;1.93;1.83;;;;;;;22.33;64.20;100241.72;5106037;28;20226;-64
2024/04/08 07:30:41;;;;;;;1.10;1.10;;;;;;;22.48;63.70;100238.13;5094350;28;20245;-65
2024/04/08 07:33:07;;;;;;;1.13;1.13;;;;;;;22.67;65.56;100246.44;5104506;28;20279;-64
2024/04/08 07:35:34;;;;;;;1.80;1.33;;;;;;;22.88;63.75;100239.75;5111536;28;20613;-64
2024/04/08 07:37:59;;;;;;;2.57;1.10;;;;;;;22.93;63.50;100237.69;5100088;28;20248;-64
2024/04/08 07:40:27;;;;;;;1.17;1.10;;;;;;;22.91;61.62;100241.31;5099145;28;20199;-64
2024/04/08 07:42:53;;;;;;;1.20;1.20;;;;;;;22.75;64.12;100241.53;5101405;28;20251;-64
2024/04/08 07:45:20;;;;;;;1.77;1.67;;;;;;;22.90;66.04;100234.44;5107734;28;20210;-64
2024/04/08 07:47:46;;;;;;;1.20;1.20;;;;;;;23.09;61.81;100237.47;5102899;28;20200;-64
2024/04/08 07:50:13;;;;;;;1.20;1.20;;;;;;;23.14;62.70;100234.53;5102084;28;20207;-63
2024/04/08 07:52:39;;;;;;;1.43;1.07;;;;;;;23.15;62.81;100230.97;5106322;28;20743;-64
2024/04/08 07:55:07;;;;;;;1.07;1.07;;;;;;;23.08;62.13;100234.94;5098935;28;20259;-64
2024/04/08 07:57:34;;;;;;;1.17;1.17;;;;;;;22.94;62.06;100223.66;5102098;28;20654;-64
2024/04/08 08:00:01;;;;;;;1.57;1.47;;;;;;;23.02;63.30;100226.59;5097856;28;20257;-64
2024/04/08 08:02:29;;;;;;;1.07;1.07;;;;;;;23.11;62.67;100227.75;5102332;28;20195;-64
2024/04/08 08:04:56;;;;;;;1.03;1.03;;;;;;;23.23;63.09;100228.69;5102413;28;20199;-64
2024/04/08 08:07:21;;;;;;;1.30;1.27;;;;;;;23.09;61.88;100220.94;5109275;28;20210;-64
2024/04/08 08:09:48;;;;;;;1.00;1.00;;;;;;;23.08;66.66;100219.25;5102074;28;20678;-64
2024/04/08 08:12:17;;;;;;;1.00;1.00;;;;;;;23.31;63.65;100223.75;5092245;28;20215;-64
2024/04/08 08:14:46;;;;;;;0.93;0.93;;;;;;;23.39;63.93;100219.63;5105152;28;20203;-64
2024/04/08 08:17:13;;;;;;;0.90;0.90;;;;;;;23.32;62.18;100217.56;5101312;28;20199;-64
2024/04/08 08:19:38;;;;;;;1.33;1.27;;;;;;;23.45;62.70;100223.66;5095474;28;20704;-64
2024/04/08 08:22:05;;;;;;;1.10;1.10;;;;;;;23.59;64.10;100215.66;5107831;28;20226;-64
2024/04/08 08:24:33;;;;;;;1.70;0.87;;;;;;;23.84;61.85;100214.75;5095788;28;20679;-64
2024/04/08 08:27:00;;;;;;;1.20;1.20;;;;;;;23.95;59.66;100223.50;5105899;28;20248;-64
2024/04/08 08:29:27;;;;;;;0.90;0.90;;;;;;;24.03;60.56;100218.56;5104437;28;20199;-64
2024/04/08 08:31:55;;;;;;;0.83;0.83;;;;;;;23.96;65.30;100212.09;5101114;28;20801;-64
2024/04/08 08:34:22;;;;;;;1.20;1.20;;;;;;;23.98;61.63;100207.56;5102723;28;20279;-64
2024/04/08 08:38:10;;;;;;;1.40;1.30;;;;;;;24.30;61.10;100209.63;5560573;25;20976;-64
2024/04/08 08:40:42;;;;;;;1.13;1.13;;;;;;;24.39;58.98;100211.59;5558477;25;20234;-64
2024/04/08 08:43:10;;;;;;;0.70;0.70;;;;;;;24.30;56.96;100191.28;5560105;25;20311;-63
2024/04/08 08:45:41;;;;;;;0.90;0.90;;;;;;;24.44;57.09;100210.28;5552771;25;20268;-64
2024/04/08 08:48:10;;;;;;;0.90;0.90;;;;;;;24.52;59.17;100201.88;5575206;25;20249;-64
2024/04/08 08:50:37;;;;;;;0.70;0.70;;;;;;;24.71;59.86;100199.53;5553862;25;20235;-64
2024/04/08 08:53:07;;;;;;;1.27;0.80;;;;;;;24.62;57.41;100197.56;5563254;25;20283;-64
2024/04/08 08:55:37;;;;;;;0.80;0.80;;;;;;;24.56;55.28;100198.03;5568425;25;20234;-64
2024/04/08 08:58:07;;;;;;;0.60;0.60;;;;;;;24.39;52.39;100201.09;5579766;25;20327;-64
2024/04/08 09:00:37;;;;;;;0.60;0.60;;;;;;;24.41;56.35;100193.97;5546916;25;20280;-64
2024/04/08 09:03:07;;;;;;;0.40;0.40;;;;;;;24.49;54.31;100176.69;5571288;25;20230;-64
2024/04/08 09:05:33;;;;;;;0.70;0.70;;;;;;;24.42;55.83;100191.25;5554965;25;20574;-64
2024/04/08 09:08:01;;;;;;;0.50;0.50;;;;;;;24.71;54.17;100191.66;5577817;25;20351;-65
2024/04/08 09:10:27;;;;;;;0.70;0.70;;;;;;;24.73;52.16;100195.00;5556435;25;20278;-65
2024/04/08 09:12:58;;;;;;;0.50;0.50;;;;;;;24.86;49.80;100181.81;5574136;25;20280;-65
2024/04/08 09:15:24;;;;;;;0.50;0.50;;;;;;;24.91;53.77;100177.88;5580295;25;20226;-65
2024/04/08 09:17:52;;;;;;;0.57;0.57;;;;;;;24.84;47.13;100192.44;5582498;25;20272;-65
2024/04/08 09:20:18;;;;;;;0.57;0.57;;;;;;;24.57;46.95;100173.50;5556574;25;20266;-65
2024/04/08 09:22:47;;;;;;;0.53;0.53;;;;;;;24.59;40.30;100187.31;5580006;25;20234;-65
2024/04/08 09:25:13;;;;;;;0.30;0.30;;;;;;;24.53;41.77;100183.38;5560093;25;20285;-65
2024/04/08 09:27:42;;;;;;;0.60;0.60;;;;;;;24.70;44.96;100173.41;5580652;25;20237;-65
2024/04/08 09:30:11;;;;;;;0.50;0.50;;;;;;;24.73;45.81;100181.03;5577488;25;20709;-64
2024/04/08 09:32:40;;;;;;;0.70;0.70;;;;;;;24.62;42.99;100171.34;5555485;25;20246;-65
2024/04/08 09:35:07;;;;;;;0.53;0.53;;;;;;;24.65;44.70;100163.28;5544963;25;20315;-65
2024/04/08 09:37:36;;;;;;;0.50;0.50;;;;;;;24.67;44.95;100164.00;5562566;25;20238;-64
2024/04/08 09:40:04;;;;;;;0.60;0.60;;;;;;;24.75;45.96;100164.22;5562255;25;20234;-64
2024/04/08 09:42:35;;;;;;;0.60;0.60;;;;;;;24.82;47.11;100168.09;5575073;25;20566;-64
2024/04/08 09:45:03;;;;;;;0.60;0.60;;;;;;;24.80;45.84;100159.47;5540017;25;20314;-66
2024/04/08 09:47:36;;;;;;;0.60;0.60;;;;;;;24.86;44.65;100160.81;5570797;25;20301;-65
2024/04/08 09:50:03;;;;;;;0.60;0.60;;;;;;;24.56;44.95;100167.41;5564246;25;20294;-65
2024/04/08 09:52:32;;;;;;;0.57;0.57;;;;;;;24.51;45.14;100160.88;5566366;25;20796;-65
2024/04/08 09:54:58;;;;;;;0.70;0.70;;;;;;;24.55;43.07;100151.81;5554830;25;20231;-65
2024/04/08 09:57:29;;;;;;;0.70;0.70;;;;;;;24.82;46.67;100157.59;5531739;25;20305;-64
2024/04/08 09:59:56;;;;;;;0.50;0.50;;;;;;;24.88;46.72;100156.31;5534135;25;20371;-65
2024/04/08 10:02:42;;;;;;;0.57;0.57;;;;;;;25.02;48.81;100154.28;5558890;25;20797;-65
2024/04/08 10:05:08;;;;;;;0.60;0.60;;;;;;;25.34;42.17;100162.25;5547431;25;20230;-69
2024/04/08 10:07:37;;;;;;;0.67;0.67;;;;;;;24.92;40.30;100137.56;5561474;25;20326;-66
2024/04/08 10:10:04;;;;;;;1.33;0.50;;;;;;;24.65;41.84;100150.19;5551247;25;20265;-68
2024/04/08 10:12:33;;;;;;;0.50;0.50;;;;;;;24.42;39.78;100153.69;5564677;25;20282;-68
2024/04/08 10:15:07;;;;;;;0.60;0.60;;;;;;;24.02;41.73;100145.31;5562050;25;20234;-68
2024/04/08 10:17:39;;;;;;;0.70;0.70;;;;;;;24.25;43.70;100141.03;5566239;25;20302;-66
2024/04/08 10:20:05;;;;;;;0.50;0.50;;;;;;;24.31;41.68;100135.31;5553385;25;20241;-67
2024/04/08 10:22:35;;;;;;;0.80;0.80;;;;;;;23.86;41.72;100129.06;5535754;25;20235;-66
2024/04/08 10:25:01;;;;;;;0.70;0.70;;;;;;;23.95;43.12;100134.44;5560524;25;21399;-68
2024/04/08 10:27:30;;;;;;;0.80;0.80;;;;;;;24.11;42.78;100133.31;5566706;25;20594;-68
2024/04/08 10:29:56;;;;;;;0.63;0.63;;;;;;;24.38;43.00;100131.28;5564136;25;20234;-68
2024/04/08 10:32:24;;;;;;;0.50;0.50;;;;;;;24.26;42.79;100124.34;5566833;25;20274;-68
2024/04/08 10:34:54;;;;;;;0.73;0.73;;;;;;;24.16;44.11;100120.75;5563344;25;20268;-68
2024/04/08 10:37:22;;;;;;;0.60;0.60;;;;;;;24.11;43.81;100117.59;5566218;25;20784;-65
2024/04/08 10:39:57;;;;;;;0.40;0.40;;;;;;;24.31;44.54;100119.59;5558913;25;20356;-64
2024/04/08 10:42:28;;;;;;;0.50;0.50;;;;;;;24.24;40.49;100113.97;5554587;25;20281;-65
2024/04/08 10:44:54;;;;;;;0.47;0.47;;;;;;;23.98;41.01;100115.88;5538072;25;20279;-65
2024/04/08 10:47:23;;;;;;;0.50;0.50;;;;;;;23.79;40.87;100114.72;5542348;25;20239;-64
2024/04/08 10:49:49;;;;;;;0.50;0.50;;;;;;;24.11;42.64;100101.88;5550141;25;20706;-64
2024/04/08 10:52:20;;;;;;;0.73;0.73;;;;;;;24.48;42.08;100111.28;5562355;25;20280;-65
2024/04/08 10:54:46;;;;;;;0.50;0.50;;;;;;;24.58;40.09;100086.03;5532723;25;20231;-65
2024/04/08 10:57:15;;;;;;;0.50;0.50;;;;;;;24.61;40.25;100096.28;5527854;25;20270;-64
2024/04/08 10:59:40;;;;;;;0.67;0.60;;;;;;;24.73;40.78;100084.00;5535677;25;20230;-65
2024/04/08 11:02:15;;;;;;;0.60;0.60;;;;;;;24.75;39.60;100080.31;5556945;25;20264;-65
2024/04/08 11:04:41;;;;;;;0.63;0.63;;;;;;;24.49;41.20;100077.06;5562161;25;20272;-64
2024/04/08 11:07:10;;;;;;;0.77;0.77;;;;;;;24.56;40.62;100073.03;5559680;25;20565;-65
2024/04/08 11:09:39;;;;;;;0.40;0.40;;;;;;;24.40;40.28;100074.31;5561255;25;20233;-64
2024/04/08 11:12:08;;;;;;;0.43;0.43;;;;;;;24.26;39.92;100075.41;5546391;25;20231;-64
2024/04/08 11:14:34;;;;;;;0.60;0.60;;;;;;;24.14;39.93;100049.28;5546985;25;20235;-65
2024/04/08 11:17:09;;;;;;;0.60;0.60;;;;;;;24.18;40.43;100067.28;5529307;25;20279;-64
2024/04/08 11:19:37;;;;;;;0.73;0.73;;;;;;;24.42;40.69;100059.34;5549234;25;20279;-64
2024/04/08 11:22:09;;;;;;;0.47;0.47;;;;;;;24.63;41.01;100055.03;5545105;25;20721;-65